LFPO/ORY METAR and TAF weather

Enter ICAO airport designator
Station Type Date Time Source
LFPO METAR 2022/12/01 00:00 UTC NOAA

LFPO 010000Z AUTO 03006KT 6000 FEW011 05/04 Q1025 TEMPO BKN008


Station Type Date Time Source
LFPO Decoded METAR 2022/12/01 00:00 UTC NOAA

Paris-Orly, France (LFPO) 48-44N 002-24E 96M
Nov 30, 2022 - 07:00 PM EST / 2022.12.01 0000 UTC
Wind: from the NNE (030 degrees) at 7 MPH (6 KT):0
Visibility: 3 mile(s):0
Sky conditions: mostly clear
Temperature: 41 F (5 C)
Dew Point: 39 F (4 C)
Relative Humidity: 93%
Pressure (altimeter): 30.27 in. Hg (1025 hPa)
ob: LFPO 010000Z AUTO 03006KT 6000 FEW011 05/04 Q1025 TEMPO BKN008
cycle: 0

Station Type Date Time Source
LFPO TAF 2022/11/30 21:32 UTC NOAA

TAF
AMD LFPO 302115Z 3021/0124 02008KT 9999 BKN035
TEMPO 3021/0110 BKN008
TEMPO 0110/0124 BKN012

Example: see airport list